createdAt,value
2018-01-27T00:00:41.008Z,0
2018-01-27T00:01:40.552Z,0
2018-01-27T00:02:40.556Z,0
2018-01-27T00:03:40.575Z,0
2018-01-27T00:04:40.338Z,0
2018-01-27T00:05:40.620Z,0
2018-01-27T00:06:40.371Z,0
2018-01-27T00:07:40.900Z,0
2018-01-27T00:08:41.135Z,0
2018-01-27T00:09:40.902Z,0
2018-01-27T00:10:41.176Z,0
2018-01-27T00:11:40.691Z,0
2018-01-27T00:12:40.974Z,0
2018-01-27T00:13:41.221Z,0
2018-01-27T00:14:40.769Z,0
2018-01-27T00:15:41.027Z,0
2018-01-27T00:16:41.024Z,0
2018-01-27T00:17:40.808Z,0
2018-01-27T00:18:40.809Z,0
2018-01-27T00:19:41.076Z,0
2018-01-27T00:20:40.843Z,0
2018-01-27T00:21:41.171Z,0
2018-01-27T00:22:40.629Z,0
2018-01-27T00:23:41.398Z,0
2018-01-27T00:24:41.175Z,0
2018-01-27T00:25:40.682Z,0
2018-01-27T00:26:41.467Z,0
2018-01-27T00:27:41.469Z,0
2018-01-27T00:28:41.234Z,0
2018-01-27T00:29:41.000Z,0
2018-01-27T00:30:41.286Z,0
2018-01-27T00:31:41.288Z,0
2018-01-27T00:32:41.304Z,0
2018-01-27T00:33:41.091Z,0
2018-01-27T00:34:41.088Z,0
2018-01-27T00:35:41.357Z,0
2018-01-27T00:36:41.621Z,0
2018-01-27T00:37:41.154Z,0
2018-01-27T00:38:41.153Z,0
2018-01-27T00:39:41.427Z,0
2018-01-27T00:40:41.695Z,0
2018-01-27T00:41:41.207Z,0
2018-01-27T00:42:41.481Z,0
2018-01-27T00:43:41.500Z,0
2018-01-27T00:44:41.013Z,0
2018-01-27T00:45:41.531Z,0
2018-01-27T00:46:41.804Z,0
2018-01-27T00:47:41.318Z,0
2018-01-27T00:48:41.584Z,0
2018-01-27T00:49:41.879Z,0
2018-01-27T00:50:41.371Z,0
2018-01-27T00:51:41.392Z,0
2018-01-27T00:52:41.661Z,0
2018-01-27T00:53:41.674Z,0
2018-01-27T00:54:41.697Z,0
2018-01-27T00:55:41.713Z,0
2018-01-27T00:56:41.536Z,0
2018-01-27T00:57:41.994Z,0
2018-01-27T00:58:41.772Z,0
2018-01-27T00:59:41.548Z,0
2018-01-27T01:00:41.545Z,0
2018-01-27T01:01:41.820Z,0
2018-01-27T01:02:41.603Z,0
2018-01-27T01:03:41.855Z,0
2018-01-27T01:04:41.869Z,0
2018-01-27T01:05:41.884Z,0
2018-01-27T01:06:41.424Z,0
2018-01-27T01:07:41.968Z,0
2018-01-27T01:08:41.458Z,0
2018-01-27T01:09:41.722Z,0
2018-01-27T01:10:41.471Z,0
2018-01-27T01:11:41.997Z,0
2018-01-27T01:12:42.263Z,0
2018-01-27T01:13:41.771Z,0
2018-01-27T01:14:42.297Z,0
2018-01-27T01:15:42.062Z,0
2018-01-27T01:16:41.826Z,0
2018-01-27T01:17:42.341Z,0
2018-01-27T01:18:42.113Z,0
2018-01-27T01:19:41.928Z,0
2018-01-27T01:20:42.145Z,0
2018-01-27T01:21:42.417Z,0
2018-01-27T01:22:42.200Z,0
2018-01-27T01:23:41.948Z,0
2018-01-27T01:24:42.224Z,0
2018-01-27T01:25:42.490Z,0
2018-01-27T01:26:42.258Z,0
2018-01-27T01:27:42.275Z,0
2018-01-27T01:28:41.793Z,0
2018-01-27T01:29:42.563Z,0
2018-01-27T01:30:42.331Z,0
2018-01-27T01:31:42.348Z,0
2018-01-27T01:32:41.856Z,0
2018-01-27T01:33:42.629Z,0
2018-01-27T01:34:42.672Z,0
2018-01-27T01:35:42.668Z,0
2018-01-27T01:36:42.436Z,0
2018-01-27T01:37:42.708Z,0
2018-01-27T01:38:42.768Z,0
2018-01-27T01:39:42.493Z,0
2018-01-27T01:40:42.752Z,0
2018-01-27T01:41:42.267Z,0
2018-01-27T01:42:42.602Z,0
2018-01-27T01:43:42.813Z,0
2018-01-27T01:44:42.321Z,0
2018-01-27T01:45:42.339Z,0
2018-01-27T01:46:42.868Z,0
2018-01-27T01:47:42.874Z,0
2018-01-27T01:48:42.898Z,0
2018-01-27T01:49:42.668Z,0
2018-01-27T01:50:42.177Z,0
2018-01-27T01:51:42.444Z,0
2018-01-27T01:52:42.222Z,0
2018-01-27T01:53:42.483Z,0
2018-01-27T01:54:42.749Z,0
2018-01-27T01:55:43.018Z,0
2018-01-27T01:56:42.795Z,0
2018-01-27T01:57:42.802Z,0
2018-01-27T01:58:42.821Z,0
2018-01-27T01:59:42.589Z,0
2018-01-27T02:00:42.603Z,0
2018-01-27T02:01:42.887Z,0
2018-01-27T02:02:43.135Z,0
2018-01-27T02:03:43.166Z,0
2018-01-27T02:04:42.952Z,0
2018-01-27T02:05:42.689Z,0
2018-01-27T02:06:42.737Z,0
2018-01-27T02:07:43.229Z,0
2018-01-27T02:08:43.019Z,0
2018-01-27T02:09:42.762Z,0
2018-01-27T02:10:43.032Z,0
2018-01-27T02:11:43.048Z,0
2018-01-27T02:12:43.062Z,0
2018-01-27T02:13:43.335Z,0
2018-01-27T02:14:42.865Z,0
2018-01-27T02:15:43.118Z,0
2018-01-27T02:16:42.638Z,0
2018-01-27T02:17:43.419Z,0
2018-01-27T02:18:42.928Z,0
2018-01-27T02:19:42.946Z,0
2018-01-27T02:20:43.214Z,0
2018-01-27T02:21:42.974Z,0
2018-01-27T02:22:43.246Z,0
2018-01-27T02:23:43.513Z,0
2018-01-27T02:24:42.779Z,0
2018-01-27T02:25:43.048Z,0
2018-01-27T02:26:43.594Z,0
2018-01-27T02:27:42.833Z,0
2018-01-27T02:28:43.361Z,0
2018-01-27T02:29:43.623Z,0
2018-01-27T02:30:43.642Z,0
2018-01-27T02:31:43.418Z,0
2018-01-27T02:32:43.178Z,0
2018-01-27T02:33:43.721Z,0
2018-01-27T02:34:43.467Z,0
2018-01-27T02:35:43.494Z,0
2018-01-27T02:36:43.252Z,0
2018-01-27T02:37:43.518Z,0
2018-01-27T02:38:43.794Z,0
2018-01-27T02:39:43.043Z,0
2018-01-27T02:40:43.567Z,0
2018-01-27T02:41:43.588Z,0
2018-01-27T02:42:43.852Z,0
2018-01-27T02:43:43.621Z,0
2018-01-27T02:44:43.388Z,0
2018-01-27T02:45:43.657Z,0
2018-01-27T02:46:43.696Z,0
2018-01-27T02:47:43.713Z,0
2018-01-27T02:48:43.969Z,0
2018-01-27T02:49:44.024Z,0
2018-01-27T02:50:43.990Z,0
2018-01-27T02:51:43.506Z,0
2018-01-27T02:52:43.781Z,0
2018-01-27T02:53:44.070Z,0
2018-01-27T02:54:43.568Z,0
2018-01-27T02:55:43.327Z,0
2018-01-27T02:56:43.594Z,0
2018-01-27T02:57:43.873Z,0
2018-01-27T02:58:44.135Z,0
2018-01-27T02:59:43.395Z,0
2018-01-27T03:00:43.423Z,0
2018-01-27T03:01:43.432Z,0
2018-01-27T03:02:43.955Z,0
2018-01-27T03:03:43.967Z,0
2018-01-27T03:04:43.478Z,0
2018-01-27T03:05:44.259Z,0
2018-01-27T03:06:43.769Z,0
2018-01-27T03:07:44.040Z,0
2018-01-27T03:08:44.313Z,0
2018-01-27T03:09:44.087Z,0
2018-01-27T03:10:43.847Z,0
2018-01-27T03:11:44.111Z,0
2018-01-27T03:12:44.381Z,0
2018-01-27T03:13:44.462Z,0
2018-01-27T03:14:44.159Z,0
2018-01-27T03:15:44.433Z,0
2018-01-27T03:16:43.954Z,0
2018-01-27T03:17:44.466Z,0
2018-01-27T03:18:43.984Z,0
2018-01-27T03:19:44.504Z,0
2018-01-27T03:20:44.027Z,0
2018-01-27T03:21:44.040Z,0
2018-01-27T03:22:44.510Z,0
2018-01-27T03:23:44.083Z,0
2018-01-27T03:24:44.089Z,0
2018-01-27T03:25:44.111Z,0
2018-01-27T03:26:44.129Z,0
2018-01-27T03:27:44.668Z,0
2018-01-27T03:28:44.162Z,0
2018-01-27T03:29:44.429Z,0
2018-01-27T03:30:44.702Z,0
2018-01-27T03:31:44.472Z,0
2018-01-27T03:32:44.239Z,0
2018-01-27T03:33:44.754Z,0
2018-01-27T03:34:44.522Z,4
2018-01-27T03:35:44.334Z,0
2018-01-27T03:36:44.554Z,0
2018-01-27T03:37:44.070Z,0
2018-01-27T03:38:44.618Z,0
2018-01-27T03:39:44.362Z,0
2018-01-27T03:40:44.626Z,0
2018-01-27T03:41:44.639Z,0
2018-01-27T03:42:44.663Z,0
2018-01-27T03:43:44.925Z,0
2018-01-27T03:44:44.696Z,0
2018-01-27T03:45:44.735Z,0
2018-01-27T03:46:44.488Z,0
2018-01-27T03:47:44.999Z,0
2018-01-27T03:48:44.767Z,0
2018-01-27T03:49:45.028Z,0
2018-01-27T03:50:45.053Z,0
2018-01-27T03:51:44.565Z,0
2018-01-27T03:52:44.834Z,0
2018-01-27T03:53:44.853Z,0
2018-01-27T03:54:44.872Z,0
2018-01-27T03:55:44.888Z,0
2018-01-27T03:56:44.906Z,0
2018-01-27T03:57:44.925Z,0
2018-01-27T03:58:44.939Z,0
2018-01-27T03:59:44.710Z,0
2018-01-27T04:00:44.972Z,0
2018-01-27T04:01:45.247Z,0
2018-01-27T04:02:44.755Z,0
2018-01-27T04:03:45.023Z,0
2018-01-27T04:04:45.297Z,0
2018-01-27T04:05:44.811Z,0
2018-01-27T04:06:45.335Z,0
2018-01-27T04:07:45.094Z,0
2018-01-27T04:08:45.111Z,0
2018-01-27T04:09:45.134Z,0
2018-01-27T04:10:45.157Z,0
2018-01-27T04:11:44.918Z,0
2018-01-27T04:12:45.197Z,0
2018-01-27T04:13:44.953Z,0
2018-01-27T04:14:44.972Z,0
2018-01-27T04:15:45.243Z,0
2018-01-27T04:16:45.263Z,0
2018-01-27T04:17:45.524Z,0
2018-01-27T04:18:45.304Z,0
2018-01-27T04:19:45.324Z,0
2018-01-27T04:20:45.330Z,0
2018-01-27T04:21:45.094Z,0
2018-01-27T04:22:44.858Z,0
2018-01-27T04:23:45.630Z,0
2018-01-27T04:24:45.399Z,0
2018-01-27T04:25:44.912Z,0
2018-01-27T04:26:45.177Z,0
2018-01-27T04:27:45.449Z,0
2018-01-27T04:28:45.460Z,0
2018-01-27T04:29:45.478Z,0
2018-01-27T04:30:45.811Z,0
2018-01-27T04:31:45.768Z,0
2018-01-27T04:32:45.539Z,0
2018-01-27T04:33:45.589Z,0
2018-01-27T04:34:45.567Z,0
2018-01-27T04:35:45.843Z,0
2018-01-27T04:36:45.413Z,0
2018-01-27T04:37:45.621Z,0
2018-01-27T04:38:45.408Z,0
2018-01-27T04:39:45.660Z,0
2018-01-27T04:40:45.928Z,0
2018-01-27T04:41:45.944Z,0
2018-01-27T04:42:45.465Z,0
2018-01-27T04:43:45.478Z,0
2018-01-27T04:44:45.998Z,0
2018-01-27T04:45:45.512Z,0
2018-01-27T04:46:45.526Z,0
2018-01-27T04:47:45.594Z,0
2018-01-27T04:48:45.817Z,0
2018-01-27T04:49:46.085Z,0
2018-01-27T04:50:45.856Z,0
2018-01-27T04:51:45.634Z,0
2018-01-27T04:52:45.640Z,0
2018-01-27T04:53:46.154Z,0
2018-01-27T04:54:45.940Z,0
2018-01-27T04:55:45.692Z,0
2018-01-27T04:56:45.962Z,0
2018-01-27T04:57:45.979Z,0
2018-01-27T04:58:46.247Z,0
2018-01-27T04:59:45.764Z,0
2018-01-27T05:00:46.047Z,0
2018-01-27T05:01:45.798Z,0
2018-01-27T05:02:46.115Z,0
2018-01-27T05:03:45.582Z,0
2018-01-27T05:04:46.370Z,0
2018-01-27T05:05:46.128Z,0
2018-01-27T05:06:46.142Z,0
2018-01-27T05:07:45.652Z,0
2018-01-27T05:08:46.179Z,0
2018-01-27T05:09:46.192Z,0
2018-01-27T05:10:46.223Z,0
2018-01-27T05:11:45.740Z,0
2018-01-27T05:12:45.992Z,0
2018-01-27T05:13:46.564Z,0
2018-01-27T05:14:46.028Z,0
2018-01-27T05:15:46.045Z,0
2018-01-27T05:16:46.313Z,0
2018-01-27T05:17:46.349Z,0
2018-01-27T05:18:46.098Z,0
2018-01-27T05:19:46.364Z,0
2018-01-27T05:20:46.388Z,0
2018-01-27T05:21:46.658Z,0
2018-01-27T05:22:46.670Z,0
2018-01-27T05:23:46.201Z,0
2018-01-27T05:24:46.459Z,0
2018-01-27T05:25:46.469Z,0
2018-01-27T05:26:46.490Z,0
2018-01-27T05:27:46.267Z,0
2018-01-27T05:28:46.563Z,0
2018-01-27T05:29:46.822Z,0
2018-01-27T05:30:46.810Z,0
2018-01-27T05:31:46.323Z,0
2018-01-27T05:32:46.595Z,0
2018-01-27T05:33:46.867Z,0
2018-01-27T05:34:46.133Z,0
2018-01-27T05:35:46.641Z,0
2018-01-27T05:36:46.662Z,0
2018-01-27T05:37:46.984Z,0
2018-01-27T05:38:46.704Z,0
2018-01-27T05:39:46.986Z,0
2018-01-27T05:40:46.978Z,0
2018-01-27T05:41:47.016Z,0
2018-01-27T05:42:47.020Z,0
2018-01-27T05:43:46.534Z,0
2018-01-27T05:44:46.805Z,0
2018-01-27T05:45:46.572Z,0
2018-01-27T05:46:46.863Z,0
2018-01-27T05:47:47.110Z,0
2018-01-27T05:48:46.629Z,0
2018-01-27T05:49:47.135Z,0
2018-01-27T05:50:47.160Z,0
2018-01-27T05:51:46.929Z,0
2018-01-27T05:52:46.964Z,0
2018-01-27T05:53:46.715Z,0
2018-01-27T05:54:46.985Z,0
2018-01-27T05:55:47.246Z,0
2018-01-27T05:56:47.033Z,0
2018-01-27T05:57:46.783Z,0
2018-01-27T05:58:47.298Z,0
2018-01-27T05:59:47.068Z,0
2018-01-27T06:00:47.082Z,0
2018-01-27T06:01:46.857Z,0
2018-01-27T06:02:47.144Z,0
2018-01-27T06:03:47.389Z,0
2018-01-27T06:04:47.401Z,0
2018-01-27T06:05:47.172Z,0
2018-01-27T06:06:47.202Z,0
2018-01-27T06:07:46.964Z,0
2018-01-27T06:08:47.478Z,0
2018-01-27T06:09:47.496Z,0
2018-01-27T06:10:47.256Z,0
2018-01-27T06:11:47.026Z,0
2018-01-27T06:12:47.554Z,0
2018-01-27T06:13:47.079Z,0
2018-01-27T06:14:46.830Z,0
2018-01-27T06:15:47.355Z,0
2018-01-27T06:16:47.113Z,0
2018-01-27T06:17:47.381Z,0
2018-01-27T06:18:46.895Z,0
2018-01-27T06:19:47.416Z,0
2018-01-27T06:20:47.448Z,0
2018-01-27T06:21:47.711Z,0
2018-01-27T06:22:47.471Z,0
2018-01-27T06:23:47.238Z,0
2018-01-27T06:24:47.758Z,0
2018-01-27T06:25:47.777Z,0
2018-01-27T06:26:47.558Z,0
2018-01-27T06:27:47.609Z,0
2018-01-27T06:28:47.322Z,4
2018-01-27T06:29:47.603Z,4
2018-01-27T06:30:47.359Z,4
2018-01-27T06:31:47.127Z,0
2018-01-27T06:32:47.393Z,4
2018-01-27T06:33:47.670Z,4
2018-01-27T06:34:47.688Z,8
2018-01-27T06:35:47.951Z,4
2018-01-27T06:36:47.721Z,8
2018-01-27T06:37:47.477Z,8
2018-01-27T06:38:47.995Z,8
2018-01-27T06:39:47.515Z,12
2018-01-27T06:40:47.549Z,12
2018-01-27T06:41:48.053Z,16
2018-01-27T06:42:48.075Z,12
2018-01-27T06:43:47.837Z,16
2018-01-27T06:44:47.850Z,20
2018-01-27T06:45:48.124Z,20
2018-01-27T06:46:48.148Z,24
2018-01-27T06:47:48.154Z,32
2018-01-27T06:48:47.933Z,36
2018-01-27T06:49:48.196Z,40
2018-01-27T06:50:47.970Z,44
2018-01-27T06:51:47.723Z,48
2018-01-27T06:52:47.992Z,56
2018-01-27T06:53:48.009Z,56
2018-01-27T06:54:47.772Z,64
2018-01-27T06:55:48.078Z,76
2018-01-27T06:56:48.317Z,84
2018-01-27T06:57:48.329Z,92
2018-01-27T06:58:47.853Z,100
2018-01-27T06:59:48.115Z,100
2018-01-27T07:00:47.879Z,96
2018-01-27T07:01:47.644Z,100
2018-01-27T07:02:48.162Z,104
2018-01-27T07:03:48.185Z,108
2018-01-27T07:04:48.198Z,116
2018-01-27T07:05:48.216Z,120
2018-01-27T07:06:47.987Z,124
2018-01-27T07:07:48.503Z,120
2018-01-27T07:08:48.547Z,120
2018-01-27T07:09:48.282Z,120
2018-01-27T07:10:48.312Z,136
2018-01-27T07:11:48.078Z,152
2018-01-27T07:12:48.590Z,172
2018-01-27T07:13:48.113Z,196
2018-01-27T07:14:48.124Z,204
2018-01-27T07:15:48.395Z,212
2018-01-27T07:16:48.657Z,204
2018-01-27T07:17:47.930Z,200
2018-01-27T07:18:48.697Z,208
2018-01-27T07:19:48.458Z,224
2018-01-27T07:20:48.227Z,232
2018-01-27T07:21:48.746Z,236
2018-01-27T07:22:48.260Z,232
2018-01-27T07:23:48.542Z,220
2018-01-27T07:24:48.043Z,212
2018-01-27T07:25:48.314Z,204
2018-01-27T07:26:48.832Z,220
2018-01-27T07:27:48.095Z,228
2018-01-27T07:28:48.110Z,224
2018-01-27T07:29:48.662Z,228
2018-01-27T07:30:48.657Z,220
2018-01-27T07:31:48.667Z,220
2018-01-27T07:32:48.434Z,224
2018-01-27T07:33:48.702Z,252
2018-01-27T07:34:48.483Z,268
2018-01-27T07:35:48.490Z,292
2018-01-27T07:36:49.007Z,300
2018-01-27T07:37:48.522Z,340
2018-01-27T07:38:48.784Z,396
2018-01-27T07:39:48.555Z,468
2018-01-27T07:40:48.568Z,492
2018-01-27T07:41:49.098Z,508
2018-01-27T07:42:48.859Z,520
2018-01-27T07:43:48.874Z,516
2018-01-27T07:44:49.146Z,512
2018-01-27T07:45:48.937Z,520
2018-01-27T07:46:48.985Z,532
2018-01-27T07:47:48.950Z,536
2018-01-27T07:48:48.711Z,548
2018-01-27T07:49:48.983Z,580
2018-01-27T07:50:49.247Z,612
2018-01-27T07:51:49.022Z,632
2018-01-27T07:52:48.790Z,636
2018-01-27T07:53:49.052Z,620
2018-01-27T07:54:48.817Z,604
2018-01-27T07:55:49.079Z,596
2018-01-27T07:56:48.848Z,592
2018-01-27T07:57:49.117Z,588
2018-01-27T07:58:48.886Z,580
2018-01-27T07:59:49.151Z,580
2018-01-27T08:00:49.177Z,588
2018-01-27T08:01:49.435Z,596
2018-01-27T08:02:49.204Z,648
2018-01-27T08:03:49.475Z,692
2018-01-27T08:04:48.737Z,684
2018-01-27T08:05:49.264Z,648
2018-01-27T08:06:49.528Z,616
2018-01-27T08:07:49.291Z,600
2018-01-27T08:08:49.566Z,608
2018-01-27T08:09:49.073Z,624
2018-01-27T08:10:49.593Z,636
2018-01-27T08:11:49.105Z,660
2018-01-27T08:12:49.145Z,708
2018-01-27T08:13:49.649Z,752
2018-01-27T08:14:49.662Z,780
2018-01-27T08:15:49.175Z,812
2018-01-27T08:16:49.196Z,848
2018-01-27T08:17:49.467Z,848
2018-01-27T08:18:48.976Z,820
2018-01-27T08:19:49.746Z,788
2018-01-27T08:20:49.014Z,776
2018-01-27T08:21:49.535Z,788
2018-01-27T08:22:49.816Z,808
2018-01-27T08:23:49.566Z,820
2018-01-27T08:24:49.837Z,812
2018-01-27T08:25:49.099Z,796
2018-01-27T08:26:49.627Z,784
2018-01-27T08:27:49.385Z,788
2018-01-27T08:28:49.653Z,808
2018-01-27T08:29:49.940Z,852
2018-01-27T08:30:49.687Z,904
2018-01-27T08:31:49.964Z,948
2018-01-27T08:32:49.992Z,976
2018-01-27T08:33:49.739Z,984
2018-01-27T08:34:50.011Z,1004
2018-01-27T08:35:49.795Z,1052
2018-01-27T08:36:49.542Z,1108
2018-01-27T08:37:49.812Z,1156
2018-01-27T08:38:49.824Z,1192
2018-01-27T08:39:49.617Z,1232
2018-01-27T08:40:50.115Z,1308
2018-01-27T08:41:49.880Z,1396
2018-01-27T08:42:49.648Z,1452
2018-01-27T08:43:49.666Z,1440
2018-01-27T08:44:49.972Z,1200
2018-01-27T08:45:50.197Z,1328
2018-01-27T08:46:49.717Z,1324
2018-01-27T08:47:50.235Z,1364
2018-01-27T08:48:50.263Z,1444
2018-01-27T08:49:50.038Z,1520
2018-01-27T08:50:50.037Z,1572
2018-01-27T08:51:50.057Z,1572
2018-01-27T08:52:50.326Z,1528
2018-01-27T08:53:49.585Z,1480
2018-01-27T08:54:49.603Z,1452
2018-01-27T08:55:50.120Z,1468
2018-01-27T08:56:50.163Z,1504
2018-01-27T08:57:49.906Z,1512
2018-01-27T08:58:50.436Z,1492
2018-01-27T08:59:49.946Z,1460
2018-01-27T09:00:50.211Z,1452
2018-01-27T09:01:50.230Z,1484
2018-01-27T09:02:50.017Z,1556
2018-01-27T09:03:50.265Z,1624
2018-01-27T09:04:50.285Z,1680
2018-01-27T09:05:50.302Z,1728
2018-01-27T09:06:50.326Z,1792
2018-01-27T09:07:50.334Z,1860
2018-01-27T09:08:50.384Z,1896
2018-01-27T09:09:50.140Z,1936
2018-01-27T09:10:50.381Z,2012
2018-01-27T09:11:50.652Z,2116
2018-01-27T09:12:50.435Z,2204
2018-01-27T09:13:50.442Z,2280
2018-01-27T09:14:49.950Z,2296
2018-01-27T09:15:49.966Z,2252
2018-01-27T09:16:50.591Z,2212
2018-01-27T09:17:50.755Z,2192
2018-01-27T09:18:50.521Z,2200
2018-01-27T09:19:50.544Z,2244
2018-01-27T09:20:50.059Z,2344
2018-01-27T09:21:50.573Z,2464
2018-01-27T09:22:50.608Z,2516
2018-01-27T09:23:50.626Z,2492
2018-01-27T09:24:50.629Z,2368
2018-01-27T09:25:50.897Z,2176
2018-01-27T09:26:50.420Z,2052
2018-01-27T09:27:50.681Z,1984
2018-01-27T09:28:50.446Z,1932
2018-01-27T09:29:50.211Z,1900
2018-01-27T09:30:50.746Z,1916
2018-01-27T09:31:50.250Z,1972
2018-01-27T09:32:51.019Z,2016
2018-01-27T09:33:51.045Z,1996
2018-01-27T09:34:50.299Z,1952
2018-01-27T09:35:50.587Z,1980
2018-01-27T09:36:50.331Z,2104
2018-01-27T09:37:50.863Z,2304
2018-01-27T09:38:50.371Z,2520
2018-01-27T09:39:50.656Z,2704
2018-01-27T09:40:50.406Z,2840
2018-01-27T09:41:50.926Z,2940
2018-01-27T09:42:50.688Z,3020
2018-01-27T09:43:50.964Z,3080
2018-01-27T09:44:50.978Z,3100
2018-01-27T09:45:50.742Z,3104
2018-01-27T09:46:50.521Z,3116
2018-01-27T09:47:51.377Z,3136
2018-01-27T09:48:51.298Z,3168
2018-01-27T09:49:50.814Z,3224
2018-01-27T09:50:50.832Z,3284
2018-01-27T09:51:51.372Z,3360
2018-01-27T09:52:51.367Z,3440
2018-01-27T09:53:51.403Z,3532
2018-01-27T09:54:50.658Z,3636
2018-01-27T09:55:51.434Z,3784
2018-01-27T09:56:51.444Z,3960
2018-01-27T09:57:51.205Z,4160
2018-01-27T09:58:51.235Z,4368
2018-01-27T09:59:50.992Z,4552
2018-01-27T10:00:50.759Z,4728
2018-01-27T10:01:51.280Z,4876
2018-01-27T10:02:51.308Z,4984
2018-01-27T10:03:51.568Z,4996
2018-01-27T10:04:51.429Z,4912
2018-01-27T10:05:51.608Z,4800
2018-01-27T10:06:51.120Z,4716
2018-01-27T10:07:51.390Z,4664
2018-01-27T10:08:51.430Z,4628
2018-01-27T10:09:51.424Z,4568
2018-01-27T10:10:51.444Z,4480
2018-01-27T10:11:50.956Z,4372
2018-01-27T10:12:51.487Z,4232
2018-01-27T10:13:51.497Z,4076
2018-01-27T10:14:51.529Z,3908
2018-01-27T10:15:51.806Z,3776
2018-01-27T10:16:51.834Z,3724
2018-01-27T10:17:51.571Z,3736
2018-01-27T10:18:51.591Z,3788
2018-01-27T10:19:51.607Z,3876
2018-01-27T10:20:51.378Z,3988
2018-01-27T10:21:51.697Z,4148
2018-01-27T10:22:51.415Z,4296
2018-01-27T10:23:51.688Z,4400
2018-01-27T10:24:51.703Z,4456
2018-01-27T10:25:51.724Z,4480
2018-01-27T10:26:51.994Z,4500
2018-01-27T10:28:06.430Z,4512
2018-01-27T10:28:51.775Z,4472
2018-01-27T10:29:52.053Z,4360
2018-01-27T10:30:52.105Z,4196
2018-01-27T10:31:51.584Z,4060
2018-01-27T10:32:51.853Z,3948
2018-01-27T10:33:52.122Z,3888
2018-01-27T10:34:52.169Z,3884
2018-01-27T10:35:51.917Z,3928
2018-01-27T10:36:52.182Z,4020
2018-01-27T10:37:51.939Z,4156
2018-01-27T10:38:52.212Z,4364
2018-01-27T10:39:52.237Z,4640
2018-01-27T10:40:52.004Z,4972
2018-01-27T10:41:52.018Z,5344
2018-01-27T10:42:52.298Z,5872
2018-01-27T10:43:52.065Z,6364
2018-01-27T10:44:52.099Z,6852
2018-01-27T10:45:51.846Z,7548
2018-01-27T10:46:52.373Z,7792
2018-01-27T10:47:52.179Z,7860
2018-01-27T10:48:51.901Z,7352
2018-01-27T10:49:52.427Z,6736
2018-01-27T10:50:51.934Z,6508
2018-01-27T10:51:52.223Z,6348
2018-01-27T10:52:52.234Z,6136
2018-01-27T10:53:52.252Z,5920
2018-01-27T10:54:52.268Z,5640
2018-01-27T10:55:51.787Z,5556
2018-01-27T10:56:52.300Z,5284
2018-01-27T10:57:52.576Z,4672
2018-01-27T10:58:52.355Z,4868
2018-01-27T10:59:52.615Z,4740
2018-01-27T11:00:52.653Z,4268
2018-01-27T11:01:52.651Z,4588
2018-01-27T11:02:52.672Z,4536
2018-01-27T11:03:52.759Z,4564
2018-01-27T11:04:52.217Z,4420
2018-01-27T11:05:52.729Z,4012
2018-01-27T11:06:52.509Z,3540
2018-01-27T11:07:52.029Z,3404
2018-01-27T11:08:52.290Z,3224
2018-01-27T11:09:52.304Z,2960
2018-01-27T11:10:52.323Z,2792
2018-01-27T11:11:52.364Z,2804
2018-01-27T11:12:52.364Z,2880
2018-01-27T11:13:52.389Z,2936
2018-01-27T11:14:52.402Z,2928
2018-01-27T11:15:52.937Z,2952
2018-01-27T11:16:52.689Z,3144
2018-01-27T11:17:52.711Z,3324
2018-01-27T11:18:52.484Z,3196
2018-01-27T11:19:52.751Z,3084
2018-01-27T11:20:53.027Z,3244
2018-01-27T11:21:53.040Z,3456
2018-01-27T11:22:52.885Z,3856
2018-01-27T11:23:52.342Z,4012
2018-01-27T11:24:53.176Z,4016
2018-01-27T11:25:52.868Z,4160
2018-01-27T11:26:52.383Z,4108
2018-01-27T11:27:53.155Z,4104
2018-01-27T11:28:52.672Z,4044
2018-01-27T11:29:52.952Z,4200
2018-01-27T11:30:52.978Z,4276
2018-01-27T11:31:52.988Z,4584
2018-01-27T11:32:52.756Z,4640
2018-01-27T11:33:52.519Z,4668
2018-01-27T11:34:53.062Z,4700
2018-01-27T11:35:53.065Z,4628
2018-01-27T11:36:53.090Z,4600
2018-01-27T11:37:53.101Z,4432
2018-01-27T11:38:52.880Z,3828
2018-01-27T11:39:52.958Z,3620
2018-01-27T11:40:52.909Z,3676
2018-01-27T11:41:53.186Z,3892
2018-01-27T11:42:53.446Z,4260
2018-01-27T11:43:52.964Z,4416
2018-01-27T11:44:52.730Z,4476
2018-01-27T11:46:07.932Z,4448
2018-01-27T11:46:53.274Z,4404
2018-01-27T11:47:53.041Z,4372
2018-01-27T11:48:53.313Z,4404
2018-01-27T11:49:53.331Z,4488
2018-01-27T11:50:53.352Z,4576
2018-01-27T11:51:53.117Z,4624
2018-01-27T11:52:53.139Z,4652
2018-01-27T11:53:53.417Z,4712
2018-01-27T11:54:53.438Z,4812
2018-01-27T11:55:53.700Z,4928
2018-01-27T11:56:53.470Z,5040
2018-01-27T11:57:53.234Z,5148
2018-01-27T11:58:53.524Z,5124
2018-01-27T11:59:53.524Z,4988
2018-01-27T12:00:53.039Z,4820
2018-01-27T12:01:53.054Z,4676
2018-01-27T12:02:53.574Z,4548
2018-01-27T12:03:53.600Z,4472
2018-01-27T12:04:53.628Z,4472
2018-01-27T12:05:53.889Z,4504
2018-01-27T12:06:53.661Z,4512
2018-01-27T12:07:53.426Z,4480
2018-01-27T12:08:53.449Z,4464
2018-01-27T12:09:53.963Z,4468
2018-01-27T12:10:54.082Z,4476
2018-01-27T12:11:53.502Z,4460
2018-01-27T12:12:53.770Z,4400
2018-01-27T12:13:53.807Z,4312
2018-01-27T12:14:53.303Z,4212
2018-01-27T12:15:53.579Z,4100
2018-01-27T12:16:54.112Z,3968
2018-01-27T12:17:53.863Z,3816
2018-01-27T12:18:53.632Z,3672
2018-01-27T12:19:54.154Z,3508
2018-01-27T12:20:54.138Z,3456
2018-01-27T12:21:53.706Z,3476
2018-01-27T12:22:53.709Z,3540
2018-01-27T12:23:53.982Z,3572
2018-01-27T12:24:54.009Z,3532
2018-01-27T12:25:54.268Z,3452
2018-01-27T12:26:53.789Z,3348
2018-01-27T12:27:54.073Z,3248
2018-01-27T12:28:54.094Z,3188
2018-01-27T12:29:53.588Z,3192
2018-01-27T12:30:54.117Z,3212
2018-01-27T12:31:53.878Z,3164
2018-01-27T12:32:54.148Z,3012
2018-01-27T12:33:54.172Z,2812
2018-01-27T12:34:54.436Z,2628
2018-01-27T12:35:54.206Z,2512
2018-01-27T12:36:53.971Z,2484
2018-01-27T12:37:54.559Z,2548
2018-01-27T12:38:54.521Z,2660
2018-01-27T12:39:54.529Z,2780
2018-01-27T12:40:54.309Z,2860
2018-01-27T12:41:53.838Z,2900
2018-01-27T12:42:54.375Z,2932
2018-01-27T12:43:54.355Z,3012
2018-01-27T12:44:54.628Z,3172
2018-01-27T12:45:54.154Z,3396
2018-01-27T12:46:54.681Z,3656
2018-01-27T12:47:54.446Z,3896
2018-01-27T12:48:54.447Z,4080
2018-01-27T12:49:53.973Z,4200
2018-01-27T12:50:54.232Z,4240
2018-01-27T12:51:54.280Z,4192
2018-01-27T12:52:54.519Z,4112
2018-01-27T12:53:54.552Z,4084
2018-01-27T12:54:54.558Z,4156
2018-01-27T12:55:54.328Z,4296
2018-01-27T12:56:54.848Z,4440
2018-01-27T12:57:54.109Z,4524
2018-01-27T12:58:54.890Z,4596
2018-01-27T12:59:54.399Z,4764
2018-01-27T13:00:54.727Z,5044
2018-01-27T13:01:54.454Z,5416
2018-01-27T13:02:54.275Z,5876
2018-01-27T13:03:54.233Z,6400
2018-01-27T13:04:55.014Z,6788
2018-01-27T13:05:55.014Z,6792
2018-01-27T13:06:55.072Z,6424
2018-01-27T13:07:54.832Z,6040
2018-01-27T13:08:55.094Z,5976
2018-01-27T13:09:54.850Z,6308
2018-01-27T13:10:54.859Z,6872
2018-01-27T13:11:54.874Z,7440
2018-01-27T13:12:54.639Z,7712
2018-01-27T13:13:54.666Z,7464
2018-01-27T13:14:55.004Z,6728
2018-01-27T13:15:55.255Z,6036
2018-01-27T13:16:54.982Z,5672
2018-01-27T13:17:55.010Z,5640
2018-01-27T13:18:55.012Z,5780
2018-01-27T13:19:54.778Z,5872
2018-01-27T13:20:55.074Z,5788
2018-01-27T13:21:55.083Z,5548
2018-01-27T13:22:55.349Z,5268
2018-01-27T13:23:55.132Z,5096
2018-01-27T13:24:55.128Z,5092
2018-01-27T13:25:55.137Z,5228
2018-01-27T13:26:54.925Z,5440
2018-01-27T13:27:55.438Z,5568
2018-01-27T13:28:55.232Z,5492
2018-01-27T13:29:54.984Z,5328
2018-01-27T13:30:55.261Z,5188
2018-01-27T13:31:55.273Z,5192
2018-01-27T13:32:55.278Z,5384
2018-01-27T13:33:55.322Z,5652
2018-01-27T13:34:55.601Z,5820
2018-01-27T13:35:55.094Z,5804
2018-01-27T13:36:55.101Z,5644
2018-01-27T13:37:55.382Z,5504
2018-01-27T13:38:55.661Z,5436
2018-01-27T13:39:55.430Z,5448
2018-01-27T13:40:55.736Z,5476
2018-01-27T13:41:55.715Z,5468
2018-01-27T13:42:55.725Z,5388
2018-01-27T13:43:55.741Z,5228
2018-01-27T13:44:55.535Z,5024
2018-01-27T13:45:55.306Z,4828
2018-01-27T13:46:55.587Z,4608
2018-01-27T13:47:55.573Z,4420
2018-01-27T13:48:55.615Z,4272
2018-01-27T13:49:55.598Z,4184
2018-01-27T13:50:55.869Z,4168
2018-01-27T13:51:55.675Z,4220
2018-01-27T13:52:55.421Z,4320
2018-01-27T13:53:55.473Z,4416
2018-01-27T13:54:55.757Z,4460
2018-01-27T13:55:55.984Z,4440
2018-01-27T13:56:55.996Z,4404
2018-01-27T13:57:55.766Z,4412
2018-01-27T13:58:55.521Z,4484
2018-01-27T13:59:56.041Z,4580
2018-01-27T14:00:55.819Z,4704
2018-01-27T14:01:55.876Z,4860
2018-01-27T14:02:56.104Z,4972